createdAt,value
2023-04-20T00:01:12.876Z,4.83
2023-04-20T00:03:39.754Z,4.81
2023-04-20T00:06:06.932Z,4.83
2023-04-20T00:08:33.569Z,4.78
2023-04-20T00:11:00.164Z,4.73
2023-04-20T00:13:27.070Z,4.69
2023-04-20T00:15:53.680Z,4.63
2023-04-20T00:18:20.283Z,4.61
2023-04-20T00:20:46.941Z,4.57
2023-04-20T00:23:13.514Z,4.60
2023-04-20T00:25:40.111Z,4.58
2023-04-20T00:28:06.735Z,4.54
2023-04-20T00:30:33.445Z,4.48
2023-04-20T00:33:00.307Z,4.45
2023-04-20T00:35:26.974Z,4.41
2023-04-20T00:37:53.545Z,4.41
2023-04-20T00:40:20.626Z,4.39
2023-04-20T00:42:47.349Z,4.32
2023-04-20T00:45:14.053Z,4.33
2023-04-20T00:47:40.721Z,4.29
2023-04-20T00:50:08.176Z,4.26
2023-04-20T00:52:34.854Z,4.31
2023-04-20T00:55:02.729Z,4.25
2023-04-20T00:57:31.123Z,4.23
2023-04-20T00:59:57.887Z,4.21
2023-04-20T01:02:24.684Z,4.25
2023-04-20T01:04:51.436Z,4.25
2023-04-20T01:07:18.071Z,4.18
2023-04-20T01:09:44.670Z,4.19
2023-04-20T01:12:11.838Z,4.18
2023-04-20T01:14:38.554Z,4.22
2023-04-20T01:17:06.086Z,4.22
2023-04-20T01:19:33.574Z,4.19
2023-04-20T01:22:00.222Z,4.15
2023-04-20T01:24:27.730Z,4.11
2023-04-20T01:26:54.405Z,4.13
2023-04-20T01:29:21.091Z,4.14
2023-04-20T01:31:47.777Z,4.15
2023-04-20T01:34:15.316Z,4.20
2023-04-20T01:36:41.953Z,4.17
2023-04-20T01:39:08.931Z,4.16
2023-04-20T01:41:35.844Z,4.25
2023-04-20T01:44:02.536Z,4.23
2023-04-20T01:46:29.222Z,4.21
2023-04-20T01:48:55.989Z,4.07
2023-04-20T01:51:22.642Z,4.07
2023-04-20T01:53:49.322Z,4.13
2023-04-20T01:56:16.276Z,4.19
2023-04-20T01:58:42.872Z,4.10
2023-04-20T02:01:09.522Z,4.04
2023-04-20T02:03:36.362Z,4.02
2023-04-20T02:06:03.146Z,4.00
2023-04-20T02:08:29.739Z,3.94
2023-04-20T02:10:56.333Z,3.93
2023-04-20T02:13:22.924Z,3.89
2023-04-20T02:15:49.622Z,3.80
2023-04-20T02:18:16.465Z,3.83
2023-04-20T02:20:43.958Z,3.80
2023-04-20T02:23:11.055Z,3.78
2023-04-20T02:25:38.025Z,3.78
2023-04-20T02:28:05.595Z,3.79
2023-04-20T02:30:32.200Z,3.73
2023-04-20T02:32:59.355Z,3.74
2023-04-20T02:35:26.271Z,3.75
2023-04-20T02:37:52.960Z,3.74
2023-04-20T02:40:19.660Z,3.68
2023-04-20T02:42:46.431Z,3.76
2023-04-20T02:45:13.049Z,3.70
2023-04-20T02:47:39.813Z,3.67
2023-04-20T02:50:06.894Z,3.69
2023-04-20T02:52:33.548Z,3.74
2023-04-20T02:55:00.609Z,3.71
2023-04-20T02:57:27.223Z,3.67
2023-04-20T02:59:53.920Z,3.67
2023-04-20T03:02:20.708Z,3.71
2023-04-20T03:04:47.494Z,3.68
2023-04-20T03:07:16.608Z,3.71
2023-04-20T03:09:43.511Z,3.65
2023-04-20T03:12:10.205Z,3.67
2023-04-20T03:14:36.817Z,3.69
2023-04-20T03:17:03.475Z,3.66
2023-04-20T03:19:30.095Z,3.71
2023-04-20T03:21:56.725Z,3.75
2023-04-20T03:24:24.101Z,3.74
2023-04-20T03:26:50.822Z,3.77
2023-04-20T03:29:17.648Z,3.79
2023-04-20T03:31:44.577Z,3.76
2023-04-20T03:34:11.243Z,3.75
2023-04-20T03:36:37.906Z,3.72
2023-04-20T03:39:04.707Z,3.65
2023-04-20T03:41:31.920Z,3.70
2023-04-20T03:43:58.537Z,3.74
2023-04-20T03:46:25.345Z,3.69
2023-04-20T03:48:52.000Z,3.70
2023-04-20T03:51:18.846Z,3.71
2023-04-20T03:53:45.449Z,3.69
2023-04-20T03:56:12.159Z,3.74
2023-04-20T03:58:38.822Z,3.69
2023-04-20T04:01:09.810Z,3.64
2023-04-20T04:03:36.942Z,3.65
2023-04-20T04:06:04.463Z,3.64
2023-04-20T04:08:32.263Z,3.64
2023-04-20T04:11:00.247Z,3.69
2023-04-20T04:13:26.916Z,3.76
2023-04-20T04:15:53.570Z,3.73
2023-04-20T04:18:21.739Z,3.72
2023-04-20T04:20:48.512Z,3.78
2023-04-20T04:23:15.413Z,3.85
2023-04-20T04:25:42.310Z,3.86
2023-04-20T04:28:09.013Z,3.81
2023-04-20T04:30:35.619Z,3.79
2023-04-20T04:33:05.103Z,3.77
2023-04-20T04:35:33.413Z,3.76
2023-04-20T04:38:00.813Z,3.75
2023-04-20T04:40:27.387Z,3.74
2023-04-20T04:42:55.606Z,3.70
2023-04-20T04:45:25.329Z,3.70
2023-04-20T04:47:53.975Z,3.66
2023-04-20T04:50:22.137Z,3.58
2023-04-20T04:52:48.783Z,3.64
2023-04-20T04:55:16.508Z,3.63
2023-04-20T04:57:43.384Z,3.54
2023-04-20T05:00:11.989Z,3.58
2023-04-20T05:02:38.962Z,3.51
2023-04-20T05:05:08.226Z,3.49
2023-04-20T05:07:36.565Z,3.52
2023-04-20T05:10:03.209Z,3.49
2023-04-20T05:12:30.273Z,3.53
2023-04-20T05:14:56.861Z,3.50
2023-04-20T05:17:23.614Z,3.55
2023-04-20T05:19:50.379Z,3.56
2023-04-20T05:22:17.285Z,3.55
2023-04-20T05:24:43.878Z,3.65
2023-04-20T05:27:11.446Z,3.65
2023-04-20T05:29:38.702Z,3.60
2023-04-20T05:32:05.543Z,3.60
2023-04-20T05:34:32.295Z,3.60
2023-04-20T05:36:59.645Z,3.62
2023-04-20T05:39:26.466Z,3.64
2023-04-20T05:41:53.074Z,3.67
2023-04-20T05:44:19.705Z,3.64
2023-04-20T05:46:46.275Z,3.70
2023-04-20T05:49:12.971Z,3.76
2023-04-20T05:51:39.667Z,3.80
2023-04-20T05:54:06.235Z,3.79
2023-04-20T05:56:33.002Z,3.81
2023-04-20T05:58:59.962Z,3.81
2023-04-20T06:01:26.645Z,3.89
2023-04-20T06:03:53.502Z,3.91
2023-04-20T06:06:20.183Z,3.97
2023-04-20T06:08:46.893Z,4.04
2023-04-20T06:11:13.567Z,4.13
2023-04-20T06:13:40.208Z,4.23
2023-04-20T06:16:09.641Z,4.31
2023-04-20T06:18:37.555Z,4.38
2023-04-20T06:21:04.644Z,4.44
2023-04-20T06:23:31.361Z,4.53
2023-04-20T06:25:57.956Z,4.55
2023-04-20T06:28:24.548Z,4.63
2023-04-20T06:30:51.273Z,4.65
2023-04-20T06:33:18.009Z,4.80
2023-04-20T06:35:44.724Z,4.86
2023-04-20T06:38:11.400Z,4.97
2023-04-20T06:40:38.167Z,5.06
2023-04-20T06:43:04.804Z,5.01
2023-04-20T06:45:33.605Z,5.07
2023-04-20T06:48:00.911Z,5.13
2023-04-20T06:50:27.582Z,5.25
2023-04-20T06:52:54.300Z,5.37
2023-04-20T06:55:21.371Z,5.43
2023-04-20T06:57:48.041Z,5.47
2023-04-20T07:00:15.501Z,5.49
2023-04-20T07:02:43.765Z,5.60
2023-04-20T07:05:11.502Z,5.76
2023-04-20T07:07:38.950Z,5.78
2023-04-20T07:10:07.689Z,5.84
2023-04-20T07:12:36.611Z,5.97
2023-04-20T07:15:05.088Z,6.05
2023-04-20T07:17:31.931Z,6.08
2023-04-20T07:19:59.177Z,6.15
2023-04-20T07:22:25.838Z,6.24
2023-04-20T07:24:52.464Z,6.22
2023-04-20T07:27:19.025Z,6.43
2023-04-20T07:29:45.766Z,6.58
2023-04-20T07:32:12.525Z,6.60
2023-04-20T07:34:39.231Z,6.73
2023-04-20T07:37:06.043Z,6.83
2023-04-20T07:39:32.640Z,6.90
2023-04-20T07:41:59.276Z,6.79
2023-04-20T07:44:25.892Z,6.85
2023-04-20T07:46:52.635Z,6.95
2023-04-20T07:49:19.620Z,7.01
2023-04-20T07:51:46.790Z,6.88
2023-04-20T07:54:13.399Z,6.87
2023-04-20T07:56:40.046Z,6.96
2023-04-20T07:59:06.676Z,7.04
2023-04-20T08:01:33.887Z,7.08
2023-04-20T08:04:00.791Z,7.12
2023-04-20T08:06:28.145Z,7.27
2023-04-20T08:08:54.916Z,7.34
2023-04-20T08:11:21.752Z,7.36
2023-04-20T08:13:48.393Z,7.41
2023-04-20T08:16:15.097Z,7.56
2023-04-20T08:18:42.512Z,7.57
2023-04-20T08:21:09.419Z,7.69
2023-04-20T08:23:36.244Z,7.72
2023-04-20T08:26:04.361Z,7.71
2023-04-20T08:28:33.893Z,7.88
2023-04-20T08:31:01.191Z,7.88
2023-04-20T08:33:27.805Z,8.02
2023-04-20T08:35:54.469Z,8.03
2023-04-20T08:38:32.813Z,8.13
2023-04-20T08:41:00.278Z,8.08
2023-04-20T08:43:27.017Z,8.23
2023-04-20T08:45:59.724Z,8.41
2023-04-20T08:48:29.111Z,8.53
2023-04-20T08:50:55.964Z,8.44
2023-04-20T08:53:22.868Z,8.46
2023-04-20T08:55:50.535Z,8.54
2023-04-20T08:58:17.276Z,8.48
2023-04-20T09:00:50.464Z,8.58
2023-04-20T09:03:17.604Z,8.67
2023-04-20T09:05:45.057Z,8.68
2023-04-20T09:08:11.632Z,8.76
2023-04-20T09:10:43.354Z,8.77
2023-04-20T09:13:21.228Z,8.85
2023-04-20T09:15:47.835Z,8.85
2023-04-20T09:18:15.519Z,8.92
2023-04-20T09:20:42.197Z,9.00
2023-04-20T09:23:13.316Z,9.22
2023-04-20T09:25:41.145Z,9.34
2023-04-20T09:28:07.826Z,9.33
2023-04-20T09:30:42.271Z,9.44
2023-04-20T09:33:11.011Z,9.40
2023-04-20T09:35:40.510Z,9.44
2023-04-20T09:38:08.378Z,9.65
2023-04-20T09:40:35.783Z,9.59
2023-04-20T09:43:18.430Z,9.62
2023-04-20T09:45:45.809Z,9.76
2023-04-20T09:48:15.453Z,9.78
2023-04-20T09:50:49.180Z,9.94
2023-04-20T09:53:17.789Z,9.91
2023-04-20T09:55:52.009Z,10.01
2023-04-20T09:58:20.910Z,9.97
2023-04-20T10:00:48.007Z,10.04
2023-04-20T10:03:19.549Z,10.22
2023-04-20T10:05:46.568Z,10.16
2023-04-20T10:08:13.431Z,10.21
2023-04-20T10:10:45.186Z,10.13
2023-04-20T10:13:11.955Z,10.15
2023-04-20T10:15:40.813Z,10.16
2023-04-20T10:18:18.530Z,10.27
2023-04-20T10:20:46.036Z,10.46
2023-04-20T10:23:15.931Z,10.51
2023-04-20T10:25:45.104Z,10.55
2023-04-20T10:28:12.083Z,10.55
2023-04-20T10:30:51.260Z,10.38
2023-04-20T10:33:18.565Z,10.18
2023-04-20T10:35:49.469Z,10.35
2023-04-20T10:38:27.555Z,10.38
2023-04-20T10:40:54.235Z,10.48
2023-04-20T10:43:22.019Z,10.62
2023-04-20T10:45:50.132Z,10.47
2023-04-20T10:48:18.213Z,10.59
2023-04-20T10:50:46.040Z,10.68
2023-04-20T10:53:20.795Z,10.84
2023-04-20T10:55:48.609Z,10.90
2023-04-20T10:58:24.856Z,10.97
2023-04-20T11:01:03.290Z,10.87
2023-04-20T11:03:31.709Z,10.78
2023-04-20T11:06:02.573Z,10.74
2023-04-20T11:08:39.576Z,10.70
2023-04-20T11:11:17.496Z,10.82
2023-04-20T11:13:44.168Z,10.73
2023-04-20T11:16:16.553Z,10.87
2023-04-20T11:18:56.426Z,10.88
2023-04-20T11:21:23.494Z,10.94
2023-04-20T11:23:50.643Z,10.95
2023-04-20T11:26:17.421Z,10.92
2023-04-20T11:28:54.384Z,11.26
2023-04-20T11:31:22.152Z,11.25
2023-04-20T11:33:48.933Z,11.29
2023-04-20T11:36:23.414Z,11.32
2023-04-20T11:38:50.920Z,11.26
2023-04-20T11:41:17.820Z,11.39
2023-04-20T11:43:46.047Z,11.21
2023-04-20T11:46:15.163Z,11.24
2023-04-20T11:48:41.790Z,11.41
2023-04-20T11:51:08.560Z,11.74
2023-04-20T11:53:35.179Z,11.64
2023-04-20T11:56:01.897Z,11.52
2023-04-20T11:58:28.517Z,11.47
2023-04-20T12:00:55.935Z,11.62
2023-04-20T12:03:22.787Z,11.62
2023-04-20T12:05:49.650Z,11.78
2023-04-20T12:08:17.341Z,12.00
2023-04-20T12:10:44.108Z,12.06
2023-04-20T12:13:11.102Z,12.05
2023-04-20T12:15:37.845Z,11.60
2023-04-20T12:18:04.545Z,11.83
2023-04-20T12:20:31.258Z,11.85
2023-04-20T12:22:59.084Z,11.91
2023-04-20T12:25:25.912Z,11.92
2023-04-20T12:27:52.653Z,11.88
2023-04-20T12:30:19.317Z,11.87
2023-04-20T12:32:46.009Z,11.87
2023-04-20T12:35:12.693Z,11.75
2023-04-20T12:37:39.323Z,11.93
2023-04-20T12:40:07.267Z,11.88
2023-04-20T12:42:33.869Z,11.99
2023-04-20T12:45:00.612Z,12.23
2023-04-20T12:47:27.277Z,12.12
2023-04-20T12:49:55.076Z,12.11
2023-04-20T12:52:21.908Z,12.12
2023-04-20T12:54:48.577Z,11.97
2023-04-20T12:57:15.186Z,12.16
2023-04-20T12:59:42.958Z,12.24
2023-04-20T13:02:09.675Z,12.20
2023-04-20T13:04:37.074Z,12.25
2023-04-20T13:07:03.748Z,12.47
2023-04-20T13:09:30.489Z,12.40
2023-04-20T13:11:57.958Z,12.43
2023-04-20T13:14:25.471Z,12.49
2023-04-20T13:16:54.930Z,12.59
2023-04-20T13:19:22.151Z,12.56
2023-04-20T13:21:48.767Z,12.43
2023-04-20T13:24:15.586Z,12.51
2023-04-20T13:26:42.250Z,12.54
2023-04-20T13:29:08.825Z,12.77
2023-04-20T13:31:37.046Z,12.60
2023-04-20T13:34:03.862Z,12.60
2023-04-20T13:36:31.553Z,12.40
2023-04-20T13:38:58.179Z,12.53
2023-04-20T13:41:24.923Z,12.72
2023-04-20T13:43:51.615Z,12.54
2023-04-20T13:46:20.065Z,12.46
2023-04-20T13:48:46.907Z,12.40
2023-04-20T13:51:13.554Z,12.43
2023-04-20T13:53:40.195Z,12.72
2023-04-20T13:56:06.994Z,12.58
2023-04-20T13:58:33.719Z,12.52
2023-04-20T14:01:00.392Z,12.62
2023-04-20T14:03:27.183Z,12.58
2023-04-20T14:05:54.008Z,12.59
2023-04-20T14:08:20.856Z,12.66
2023-04-20T14:10:47.466Z,12.59
2023-04-20T14:13:14.148Z,12.56
2023-04-20T14:15:41.796Z,12.55
2023-04-20T14:18:08.460Z,12.55
2023-04-20T14:20:35.534Z,12.78
2023-04-20T14:23:02.634Z,12.72
2023-04-20T14:25:29.470Z,12.87
2023-04-20T14:27:56.113Z,12.86
2023-04-20T14:30:23.098Z,12.85
2023-04-20T14:32:59.866Z,12.62
2023-04-20T14:35:27.553Z,12.58
2023-04-20T14:37:54.470Z,12.73
2023-04-20T14:40:21.333Z,12.62
2023-04-20T14:42:48.459Z,12.67
2023-04-20T14:45:15.267Z,12.66
2023-04-20T14:47:42.033Z,12.53
2023-04-20T14:50:09.774Z,12.61
2023-04-20T14:52:36.610Z,12.49
2023-04-20T14:55:04.163Z,12.60
2023-04-20T14:57:31.672Z,12.48
2023-04-20T14:59:58.309Z,12.54
2023-04-20T15:02:25.227Z,12.49
2023-04-20T15:04:52.253Z,12.38
2023-04-20T15:07:19.334Z,12.43
2023-04-20T15:09:46.454Z,12.37
2023-04-20T15:12:13.267Z,12.37
2023-04-20T15:14:39.933Z,12.44
2023-04-20T15:17:06.812Z,12.31
2023-04-20T15:19:33.562Z,12.29
2023-04-20T15:22:01.017Z,12.24
2023-04-20T15:24:27.683Z,12.30
2023-04-20T15:26:54.372Z,12.47
2023-04-20T15:29:21.398Z,12.34
2023-04-20T15:31:48.088Z,12.21
2023-04-20T15:34:17.214Z,12.31
2023-04-20T15:36:44.320Z,12.31
2023-04-20T15:39:11.087Z,12.16
2023-04-20T15:41:37.717Z,12.18
2023-04-20T15:44:04.381Z,12.36
2023-04-20T15:46:31.188Z,12.45
2023-04-20T15:48:57.970Z,12.27
2023-04-20T15:51:24.850Z,12.27
2023-04-20T15:53:51.818Z,12.21
2023-04-20T15:56:18.821Z,12.21
2023-04-20T15:58:46.147Z,12.14
2023-04-20T16:01:12.863Z,12.26
2023-04-20T16:03:39.828Z,12.14
2023-04-20T16:06:07.246Z,12.10
2023-04-20T16:08:33.914Z,12.07
2023-04-20T16:11:00.728Z,11.87
2023-04-20T16:13:27.399Z,11.78
2023-04-20T16:15:56.334Z,11.74
2023-04-20T16:18:24.395Z,11.77
2023-04-20T16:20:50.998Z,11.82
2023-04-20T16:23:17.611Z,11.59
2023-04-20T16:25:44.235Z,11.63
2023-04-20T16:28:10.877Z,11.70
2023-04-20T16:30:37.520Z,11.73
2023-04-20T16:33:04.389Z,11.73
2023-04-20T16:35:31.058Z,11.80
2023-04-20T16:37:57.684Z,11.58
2023-04-20T16:40:26.524Z,11.63
2023-04-20T16:42:53.545Z,11.58
2023-04-20T16:45:20.269Z,11.56
2023-04-20T16:47:46.987Z,11.64
2023-04-20T16:50:19.297Z,11.57
2023-04-20T16:52:47.202Z,11.59
2023-04-20T16:55:14.124Z,11.51
2023-04-20T16:57:42.122Z,11.53
2023-04-20T17:00:11.040Z,11.36
2023-04-20T17:02:38.061Z,11.37
2023-04-20T17:05:06.121Z,11.33
2023-04-20T17:07:33.135Z,11.41
2023-04-20T17:10:00.266Z,11.45
2023-04-20T17:12:26.997Z,11.36
2023-04-20T17:14:55.708Z,11.40
2023-04-20T17:17:22.371Z,11.35
2023-04-20T17:19:48.990Z,11.30
2023-04-20T17:22:15.838Z,11.24
2023-04-20T17:24:42.417Z,11.25
2023-04-20T17:27:09.009Z,11.23
2023-04-20T17:29:38.422Z,11.17
2023-04-20T17:32:05.977Z,11.20
2023-04-20T17:34:32.979Z,11.22
2023-04-20T17:36:59.668Z,11.18
2023-04-20T17:39:26.710Z,11.08
2023-04-20T17:41:53.456Z,10.98
2023-04-20T17:44:20.609Z,10.99
2023-04-20T17:46:49.733Z,10.91
2023-04-20T17:49:16.410Z,10.87
2023-04-20T17:51:43.008Z,10.95
2023-04-20T17:54:11.371Z,10.96
2023-04-20T17:56:38.232Z,10.88
2023-04-20T17:59:06.586Z,10.82
2023-04-20T18:01:35.955Z,10.81
2023-04-20T18:04:03.546Z,10.85
2023-04-20T18:06:31.600Z,10.95
2023-04-20T18:08:58.273Z,11.04
2023-04-20T18:11:25.003Z,10.98
2023-04-20T18:13:51.933Z,10.83
2023-04-20T18:16:18.963Z,10.89
2023-04-20T18:18:45.751Z,10.87
2023-04-20T18:21:14.382Z,10.81
2023-04-20T18:23:41.147Z,10.82
2023-04-20T18:26:10.343Z,10.77
2023-04-20T18:28:36.968Z,10.75
2023-04-20T18:31:03.586Z,10.71
2023-04-20T18:33:30.387Z,10.66
2023-04-20T18:35:57.006Z,10.65
2023-04-20T18:38:23.649Z,10.54
2023-04-20T18:40:50.290Z,10.49
2023-04-20T18:43:16.952Z,10.39
2023-04-20T18:45:43.598Z,10.36
2023-04-20T18:48:10.310Z,10.32
2023-04-20T18:50:37.568Z,10.32
2023-04-20T18:53:05.230Z,10.28
2023-04-20T18:55:32.222Z,10.23
2023-04-20T18:57:59.067Z,10.25
2023-04-20T19:00:26.029Z,10.17
2023-04-20T19:02:53.004Z,10.10
2023-04-20T19:05:19.862Z,10.07
2023-04-20T19:07:47.087Z,10.06
2023-04-20T19:10:13.859Z,9.99
2023-04-20T19:12:40.558Z,9.95
2023-04-20T19:15:08.924Z,9.88
2023-04-20T19:17:36.370Z,9.85
2023-04-20T19:20:04.346Z,9.82
2023-04-20T19:22:31.023Z,9.75
2023-04-20T19:24:57.669Z,9.70
2023-04-20T19:27:24.338Z,9.65
2023-04-20T19:29:51.930Z,9.65
2023-04-20T19:32:18.860Z,9.50
2023-04-20T19:34:45.611Z,9.42
2023-04-20T19:37:12.404Z,9.32
2023-04-20T19:39:39.067Z,9.27
2023-04-20T19:42:06.219Z,9.05
2023-04-20T19:44:33.782Z,8.95
2023-04-20T19:47:00.435Z,8.94
2023-04-20T19:49:27.089Z,8.90
2023-04-20T19:51:53.807Z,8.78
2023-04-20T19:54:20.429Z,8.67
2023-04-20T19:56:47.164Z,8.69
2023-04-20T19:59:13.847Z,8.51
2023-04-20T20:01:40.689Z,8.52
2023-04-20T20:04:07.935Z,8.47
2023-04-20T20:06:34.986Z,8.38
2023-04-20T20:09:02.007Z,8.33
2023-04-20T20:11:28.812Z,8.29
2023-04-20T20:13:55.514Z,8.29
2023-04-20T20:16:22.334Z,8.29
2023-04-20T20:18:49.107Z,8.25
2023-04-20T20:21:15.936Z,8.23
2023-04-20T20:23:42.575Z,8.09
2023-04-20T20:26:09.175Z,8.07
2023-04-20T20:28:35.871Z,8.03
2023-04-20T20:31:02.822Z,8.04
2023-04-20T20:33:29.431Z,8.09
2023-04-20T20:35:56.024Z,8.15
2023-04-20T20:38:22.737Z,8.22
2023-04-20T20:40:50.611Z,8.19
2023-04-20T20:43:20.069Z,8.23
2023-04-20T20:45:47.473Z,8.21
2023-04-20T20:48:14.397Z,8.23
2023-04-20T20:50:41.047Z,8.15
2023-04-20T20:53:07.718Z,8.07
2023-04-20T20:55:34.604Z,8.02
2023-04-20T20:58:01.233Z,8.02
2023-04-20T21:00:27.928Z,7.97
2023-04-20T21:02:54.770Z,7.93
2023-04-20T21:05:23.041Z,7.89
2023-04-20T21:07:49.932Z,7.85
2023-04-20T21:10:16.519Z,7.85
2023-04-20T21:12:43.110Z,7.87
2023-04-20T21:15:10.497Z,7.84
2023-04-20T21:17:37.186Z,7.88
2023-04-20T21:20:05.835Z,7.91
2023-04-20T21:22:32.452Z,7.76
2023-04-20T21:24:59.040Z,7.75
2023-04-20T21:27:26.724Z,7.80
2023-04-20T21:29:53.512Z,7.66
2023-04-20T21:32:20.334Z,7.72
2023-04-20T21:34:47.051Z,7.68
2023-04-20T21:37:13.636Z,7.60
2023-04-20T21:39:40.248Z,7.65
2023-04-20T21:42:07.006Z,7.63
2023-04-20T21:44:33.588Z,7.63
2023-04-20T21:47:02.500Z,7.56
2023-04-20T21:49:29.679Z,7.58
2023-04-20T21:51:56.305Z,7.60
2023-04-20T21:54:22.897Z,7.62
2023-04-20T21:56:49.514Z,7.66
2023-04-20T21:59:16.144Z,7.62
2023-04-20T22:01:42.913Z,7.59
2023-04-20T22:04:10.383Z,7.57
2023-04-20T22:06:37.579Z,7.61
2023-04-20T22:09:04.761Z,7.56
2023-04-20T22:11:31.846Z,7.60
2023-04-20T22:13:58.433Z,7.49
2023-04-20T22:16:25.862Z,7.49
2023-04-20T22:18:52.573Z,7.49
2023-04-20T22:21:19.143Z,7.39
2023-04-20T22:23:45.712Z,7.38
2023-04-20T22:26:12.299Z,7.40
2023-04-20T22:28:38.874Z,7.42
2023-04-20T22:31:05.976Z,7.42
2023-04-20T22:33:32.639Z,7.48
2023-04-20T22:35:59.379Z,7.41
2023-04-20T22:38:26.045Z,7.41
2023-04-20T22:40:53.679Z,7.42
2023-04-20T22:43:21.568Z,7.36
2023-04-20T22:45:48.204Z,7.35
2023-04-20T22:48:14.818Z,7.32
2023-04-20T22:50:41.392Z,7.35
2023-04-20T22:53:07.962Z,7.35
2023-04-20T22:55:34.561Z,7.32
2023-04-20T22:58:01.161Z,7.35
2023-04-20T23:00:27.834Z,7.29
2023-04-20T23:02:54.582Z,7.31
2023-04-20T23:05:21.331Z,7.21
2023-04-20T23:07:47.987Z,7.22
2023-04-20T23:10:18.844Z,7.24
2023-04-20T23:12:46.990Z,7.22
2023-04-20T23:15:13.956Z,7.14
2023-04-20T23:17:40.624Z,7.17
2023-04-20T23:20:10.381Z,7.24
2023-04-20T23:22:37.281Z,7.22
2023-04-20T23:25:03.972Z,7.21
2023-04-20T23:27:30.579Z,7.19
2023-04-20T23:29:57.173Z,7.12
2023-04-20T23:32:23.853Z,7.15
2023-04-20T23:34:50.543Z,7.06
2023-04-20T23:37:17.178Z,7.08
2023-04-20T23:39:43.793Z,7.16
2023-04-20T23:42:10.364Z,7.10
2023-04-20T23:44:36.969Z,7.04
2023-04-20T23:47:03.593Z,7.03
2023-04-20T23:49:30.366Z,7.02
2023-04-20T23:51:56.937Z,6.97
2023-04-20T23:54:23.541Z,6.97
2023-04-20T23:56:50.518Z,6.96
2023-04-20T23:59:17.356Z,6.97
